Queen Isabella — A8IE2 — position and weather

sailwx.info

Track history (hours):
 
Tides and Currents Weather Stations Pressure Air Temp Water Temp Dewpoint Dewpoint Depression Visibility Wind Speed Wind Dir Waves Ship Positions

Queen Isabella

Last reported at 2016-Jun-29 21:33 UTC. Time now 2016-Jun-29 22:01 UTC.
Position N 38°14' E 000°18'.

Length 131 m; draft 7.7 m.

Type: Ship. MMSI: 636090959.

Date/timePositionNaut miles runAvg speedWind from/ knotsBaromVisibWave heightAir tempDewpointWater temp
2016-Jun-29 21:33N 38°14' E 000°18'1313.3
2016-Jun-29 20:33N 38°01' E 000°15'1313.0
2016-Jun-29 19:33N 37°48' E 000°12'1313.1
2016-Jun-29 18:33N 37°35' E 000°09'1413.8
2016-Jun-29 17:33N 37°22' E 000°06'1514.6
2016-Jun-29 16:33N 37°08' E 000°02'1514.6
2016-Jun-29 15:34N 36°53' W 000°02'1414.3
2016-Jun-29 14:33N 36°39' W 000°05'49 2.0
2016-Jun-28 13:27N 35°51' W 000°18'4 4.7
2016-Jun-28 12:32N 35°51' W 000°13'3 1.2
2016-Jun-28 09:33N 35°54' W 000°11'3 0.3
2016-Jun-27 23:09N 35°53' W 000°14'1 2.1
2016-Jun-27 22:32N 35°52' W 000°15'5 1.6
2016-Jun-27 19:28N 35°56' W 000°12'2 2.2
2016-Jun-27 18:33N 35°56' W 000°09'60 8.6
2016-Jun-27 11:33N 36°56' W 000°03'1312.5
2016-Jun-27 10:29N 37°09' W 000°00'8013.3
2016-Jun-27 04:28N 38°28' E 000°17'7312.3
2016-Jun-26 22:31N 39°38' W 000°12'86 2.4
2016-Jun-25 10:17N 38°15' E 000°19'1012.7
2016-Jun-25 09:28N 38°05' E 000°16'1314.6
2016-Jun-25 08:33N 37°52' E 000°13'1313.2
2016-Jun-25 07:33N 37°39' E 000°10'1313.1
2016-Jun-25 06:33N 37°26' E 000°07'1414.1
2016-Jun-25 05:33N 37°12' E 000°03'1414.3
2016-Jun-25 04:33N 36°58' W 000°00'1413.8
2016-Jun-25 03:33N 36°44' W 000°03'1513.8
2016-Jun-25 02:26N 36°29' W 000°07'1314.3
2016-Jun-25 01:33N 36°17' W 000°09'1414.2
2016-Jun-25 00:33N 36°03' W 000°13'12 0.5
2016-Jun-24 01:33N 35°51' W 000°16'8 7.7
2016-Jun-24 00:33N 35°56' W 000°08'1 0.6
2016-Jun-23 23:33N 35°56' W 000°07'1 0.7
2016-Jun-23 22:33N 35°57' W 000°07'1 0.8
2016-Jun-23 21:33N 35°57' W 000°06'1 0.9
2016-Jun-23 20:33N 35°57' W 000°05'1 1.0
2016-Jun-23 19:33N 35°57' W 000°04'1 0.9
2016-Jun-23 18:33N 35°58' W 000°03'1 0.8
2016-Jun-23 17:33N 35°58' W 000°02'1 0.5
2016-Jun-23 16:33N 35°58' W 000°01'0 0.4
2016-Jun-23 15:33N 35°59' W 000°01'10 0.5
2016-Jun-22 21:08N 36°09' W 000°00'1 2.3
2016-Jun-22 20:33N 36°08' W 000°02'5 4.6
2016-Jun-22 19:33N 36°06' W 000°07'4 4.2
2016-Jun-22 18:33N 36°05' W 000°12'5 3.9
2016-Jun-22 17:17N 36°03' W 000°17'9 1.4
2016-Jun-22 10:30N 36°04' W 000°06'2 1.5
2016-Jun-22 09:12N 36°05' W 000°08'17 6.5
2016-Jun-22 06:30N 36°09' W 000°29'2 2.0
2016-Jun-22 05:33N 36°09' W 000°27'14 2.5
2016-Jun-22 00:07N 36°06' W 000°10'7 2.8
2016-Jun-21 21:33N 36°06' W 000°01'12 2.0
2016-Jun-21 15:21N 35°59' W 000°14'6 3.1
2016-Jun-21 13:33N 36°01' W 000°07'4 4.1
2016-Jun-21 12:32N 35°57' W 000°09'1 0.5
2016-Jun-21 10:05N 35°56' W 000°07'17 3.1
2016-Jun-21 04:33N 36°10' W 000°20'3 1.6
2016-Jun-21 02:24N 36°08' W 000°16'12 2.3
2016-Jun-20 21:09N 36°06' W 000°01'82 4.7
2016-Jun-20 03:33N 36°06' W 001°42'1312.9
2016-Jun-20 02:34N 36°05' W 001°58'1313.1
2016-Jun-20 01:33N 36°05' W 002°15'1413.0
2016-Jun-20 00:29N 36°04' W 002°32'1213.2
2016-Jun-19 23:33N 36°03' W 002°47'1313.5
2016-Jun-19 22:33N 36°03' W 003°04'  
Track history (hours):
 
Tides and Currents Weather Stations Pressure Air Temp Water Temp Dewpoint Dewpoint Depression Visibility Wind Speed Wind Dir Waves Ship Positions

Queen Isabella

Last reported at 2016-Jun-29 21:33 UTC. Time now 2016-Jun-29 22:01 UTC.
Position N 38°14' E 000°18'.

Length 131 m; draft 7.7 m.

Type: Ship. MMSI: 636090959.

Date/timePositionNaut miles runAvg speedWind from/ knotsBaromVisibWave heightAir tempDewpointWater temp
2016-Jun-29 21:33N 38°14' E 000°18'1313.3
2016-Jun-29 20:33N 38°01' E 000°15'1313.0
2016-Jun-29 19:33N 37°48' E 000°12'1313.1
2016-Jun-29 18:33N 37°35' E 000°09'1413.8
2016-Jun-29 17:33N 37°22' E 000°06'1514.6
2016-Jun-29 16:33N 37°08' E 000°02'1514.6
2016-Jun-29 15:34N 36°53' W 000°02'1414.3
2016-Jun-29 14:33N 36°39' W 000°05'49 2.0
2016-Jun-28 13:27N 35°51' W 000°18'4 4.7
2016-Jun-28 12:32N 35°51' W 000°13'3 1.2
2016-Jun-28 09:33N 35°54' W 000°11'3 0.3
2016-Jun-27 23:09N 35°53' W 000°14'1 2.1
2016-Jun-27 22:32N 35°52' W 000°15'5 1.6
2016-Jun-27 19:28N 35°56' W 000°12'2 2.2
2016-Jun-27 18:33N 35°56' W 000°09'60 8.6
2016-Jun-27 11:33N 36°56' W 000°03'1312.5
2016-Jun-27 10:29N 37°09' W 000°00'8013.3
2016-Jun-27 04:28N 38°28' E 000°17'7312.3
2016-Jun-26 22:31N 39°38' W 000°12'86 2.4
2016-Jun-25 10:17N 38°15' E 000°19'1012.7
2016-Jun-25 09:28N 38°05' E 000°16'1314.6
2016-Jun-25 08:33N 37°52' E 000°13'1313.2
2016-Jun-25 07:33N 37°39' E 000°10'1313.1
2016-Jun-25 06:33N 37°26' E 000°07'1414.1
2016-Jun-25 05:33N 37°12' E 000°03'1414.3
2016-Jun-25 04:33N 36°58' W 000°00'1413.8
2016-Jun-25 03:33N 36°44' W 000°03'1513.8
2016-Jun-25 02:26N 36°29' W 000°07'1314.3
2016-Jun-25 01:33N 36°17' W 000°09'1414.2
2016-Jun-25 00:33N 36°03' W 000°13'12 0.5
2016-Jun-24 01:33N 35°51' W 000°16'8 7.7
2016-Jun-24 00:33N 35°56' W 000°08'1 0.6
2016-Jun-23 23:33N 35°56' W 000°07'1 0.7
2016-Jun-23 22:33N 35°57' W 000°07'1 0.8
2016-Jun-23 21:33N 35°57' W 000°06'1 0.9
2016-Jun-23 20:33N 35°57' W 000°05'1 1.0
2016-Jun-23 19:33N 35°57' W 000°04'1 0.9
2016-Jun-23 18:33N 35°58' W 000°03'1 0.8
2016-Jun-23 17:33N 35°58' W 000°02'1 0.5
2016-Jun-23 16:33N 35°58' W 000°01'0 0.4
2016-Jun-23 15:33N 35°59' W 000°01'10 0.5
2016-Jun-22 21:08N 36°09' W 000°00'1 2.3
2016-Jun-22 20:33N 36°08' W 000°02'5 4.6
2016-Jun-22 19:33N 36°06' W 000°07'4 4.2
2016-Jun-22 18:33N 36°05' W 000°12'5 3.9
2016-Jun-22 17:17N 36°03' W 000°17'9 1.4
2016-Jun-22 10:30N 36°04' W 000°06'2 1.5
2016-Jun-22 09:12N 36°05' W 000°08'17 6.5
2016-Jun-22 06:30N 36°09' W 000°29'2 2.0
2016-Jun-22 05:33N 36°09' W 000°27'14 2.5
2016-Jun-22 00:07N 36°06' W 000°10'7 2.8
2016-Jun-21 21:33N 36°06' W 000°01'12 2.0
2016-Jun-21 15:21N 35°59' W 000°14'6 3.1
2016-Jun-21 13:33N 36°01' W 000°07'4 4.1
2016-Jun-21 12:32N 35°57' W 000°09'1 0.5
2016-Jun-21 10:05N 35°56' W 000°07'17 3.1
2016-Jun-21 04:33N 36°10' W 000°20'3 1.6
2016-Jun-21 02:24N 36°08' W 000°16'12 2.3
2016-Jun-20 21:09N 36°06' W 000°01'82 4.7
2016-Jun-20 03:33N 36°06' W 001°42'1312.9
2016-Jun-20 02:34N 36°05' W 001°58'1313.1
2016-Jun-20 01:33N 36°05' W 002°15'1413.0
2016-Jun-20 00:29N 36°04' W 002°32'1213.2
2016-Jun-19 23:33N 36°03' W 002°47'1313.5
2016-Jun-19 22:33N 36°03' W 003°04'  

Dump ship's entire track history